createdAt,value
2018-02-15T00:00:39.144Z,0.00
2018-02-15T00:01:39.065Z,0.00
2018-02-15T00:02:38.973Z,0.00
2018-02-15T00:03:38.886Z,0.00
2018-02-15T00:04:38.840Z,0.00
2018-02-15T00:05:38.710Z,0.00
2018-02-15T00:06:38.623Z,0.00
2018-02-15T00:07:38.544Z,0.00
2018-02-15T00:08:38.462Z,0.00
2018-02-15T00:09:38.403Z,0.00
2018-02-15T00:10:38.285Z,0.00
2018-02-15T00:11:38.209Z,0.00
2018-02-15T00:12:38.117Z,0.00
2018-02-15T00:13:38.023Z,0.00
2018-02-15T00:14:37.936Z,0.00
2018-02-15T00:15:37.849Z,0.00
2018-02-15T00:16:37.757Z,0.00
2018-02-15T00:17:37.678Z,0.00
2018-02-15T00:18:37.593Z,0.00
2018-02-15T00:19:37.510Z,0.00
2018-02-15T00:20:37.416Z,0.00
2018-02-15T00:21:37.335Z,0.00
2018-02-15T00:22:37.268Z,0.00
2018-02-15T00:23:37.168Z,0.00
2018-02-15T00:24:37.074Z,0.00
2018-02-15T00:25:36.990Z,0.00
2018-02-15T00:26:36.898Z,0.00
2018-02-15T00:27:36.812Z,0.00
2018-02-15T00:28:36.732Z,0.00
2018-02-15T00:29:36.636Z,0.00
2018-02-15T00:30:36.553Z,0.00
2018-02-15T00:31:36.465Z,0.00
2018-02-15T00:32:36.386Z,0.00
2018-02-15T00:33:36.306Z,0.00
2018-02-15T00:34:36.209Z,0.00
2018-02-15T00:35:36.123Z,0.00
2018-02-15T00:36:36.039Z,0.00
2018-02-15T00:37:35.957Z,0.00
2018-02-15T00:38:35.864Z,0.00
2018-02-15T00:39:35.789Z,0.00
2018-02-15T00:40:35.685Z,0.00
2018-02-15T00:41:35.608Z,0.00
2018-02-15T00:42:35.512Z,0.00
2018-02-15T00:43:35.429Z,0.00
2018-02-15T00:44:35.360Z,0.00
2018-02-15T00:45:35.268Z,0.00
2018-02-15T00:46:35.178Z,0.00
2018-02-15T00:47:35.090Z,0.00
2018-02-15T00:48:35.004Z,0.00
2018-02-15T00:49:34.917Z,0.00
2018-02-15T00:50:34.837Z,0.00
2018-02-15T00:51:34.739Z,0.00
2018-02-15T00:52:34.672Z,0.00
2018-02-15T00:53:34.572Z,0.00
2018-02-15T00:54:34.492Z,0.00
2018-02-15T00:55:34.393Z,0.00
2018-02-15T00:56:34.315Z,0.00
2018-02-15T00:57:34.243Z,0.00
2018-02-15T00:58:34.137Z,0.00
2018-02-15T00:59:34.050Z,0.00
2018-02-15T01:00:33.972Z,0.00
2018-02-15T01:01:33.889Z,0.00
2018-02-15T01:02:33.794Z,0.00
2018-02-15T01:03:33.708Z,0.00
2018-02-15T01:04:33.616Z,0.00
2018-02-15T01:05:33.534Z,0.00
2018-02-15T01:06:33.439Z,0.00
2018-02-15T01:07:33.369Z,0.00
2018-02-15T01:08:33.293Z,0.00
2018-02-15T01:09:33.192Z,0.00
2018-02-15T01:10:33.112Z,0.00
2018-02-15T01:11:33.020Z,0.00
2018-02-15T01:12:32.932Z,0.00
2018-02-15T01:13:32.842Z,0.00
2018-02-15T01:14:32.774Z,0.00
2018-02-15T01:15:32.670Z,0.00
2018-02-15T01:16:32.579Z,0.00
2018-02-15T01:17:32.503Z,0.00
2018-02-15T01:18:32.417Z,0.00
2018-02-15T01:19:32.327Z,0.00
2018-02-15T01:20:32.244Z,0.00
2018-02-15T01:21:32.155Z,0.00
2018-02-15T01:22:32.071Z,0.00
2018-02-15T01:23:31.985Z,0.00
2018-02-15T01:24:31.895Z,0.00
2018-02-15T01:25:31.810Z,0.00
2018-02-15T01:26:31.718Z,0.00
2018-02-15T01:27:31.642Z,0.00
2018-02-15T01:28:31.573Z,0.00
2018-02-15T01:29:31.465Z,0.00
2018-02-15T01:30:31.384Z,0.00
2018-02-15T01:31:31.301Z,0.00
2018-02-15T01:32:31.206Z,0.00
2018-02-15T01:33:31.122Z,0.00
2018-02-15T01:34:31.036Z,0.00
2018-02-15T01:35:30.944Z,0.00
2018-02-15T01:36:30.862Z,0.00
2018-02-15T01:37:30.772Z,0.00
2018-02-15T01:38:30.688Z,0.00
2018-02-15T01:39:30.597Z,0.00
2018-02-15T01:40:30.516Z,0.00
2018-02-15T01:41:30.441Z,0.00
2018-02-15T01:42:30.350Z,0.00
2018-02-15T01:43:30.261Z,0.00
2018-02-15T01:44:30.175Z,0.00
2018-02-15T01:45:30.084Z,0.00
2018-02-15T01:46:30.001Z,0.00
2018-02-15T01:47:29.914Z,0.00
2018-02-15T01:48:29.820Z,0.00
2018-02-15T01:49:29.735Z,0.00
2018-02-15T01:50:29.650Z,0.00
2018-02-15T01:51:29.568Z,0.00
2018-02-15T01:52:29.485Z,0.00
2018-02-15T01:53:29.395Z,0.00
2018-02-15T01:54:29.312Z,0.00
2018-02-15T01:55:29.227Z,0.00
2018-02-15T01:56:29.134Z,0.00
2018-02-15T01:57:29.053Z,0.00
2018-02-15T01:58:28.972Z,0.00
2018-02-15T01:59:28.870Z,0.00
2018-02-15T02:00:28.790Z,0.00
2018-02-15T02:01:28.694Z,0.00
2018-02-15T02:02:28.623Z,0.00
2018-02-15T02:03:28.537Z,0.00
2018-02-15T02:04:28.444Z,0.00
2018-02-15T02:05:28.375Z,0.00
2018-02-15T02:06:28.274Z,0.00
2018-02-15T02:07:28.186Z,0.00
2018-02-15T02:08:28.100Z,0.00
2018-02-15T02:09:28.020Z,0.00
2018-02-15T02:10:27.943Z,0.00
2018-02-15T02:11:27.841Z,0.00
2018-02-15T02:12:27.746Z,0.00
2018-02-15T02:13:27.677Z,0.00
2018-02-15T02:14:27.588Z,0.00
2018-02-15T02:15:27.501Z,0.00
2018-02-15T02:16:27.416Z,0.00
2018-02-15T02:17:27.325Z,0.00
2018-02-15T02:18:27.239Z,0.00
2018-02-15T02:19:27.150Z,0.00
2018-02-15T02:20:27.070Z,0.00
2018-02-15T02:21:27.003Z,0.00
2018-02-15T02:22:26.887Z,0.00
2018-02-15T02:23:26.822Z,0.00
2018-02-15T02:24:26.728Z,0.00
2018-02-15T02:25:26.635Z,0.00
2018-02-15T02:26:26.549Z,0.00
2018-02-15T02:27:26.475Z,0.00
2018-02-15T02:28:26.377Z,0.00
2018-02-15T02:29:26.301Z,0.00
2018-02-15T02:30:26.229Z,0.00
2018-02-15T02:31:26.123Z,0.00
2018-02-15T02:32:26.031Z,0.00
2018-02-15T02:33:25.952Z,0.00
2018-02-15T02:34:25.856Z,0.00
2018-02-15T02:35:25.783Z,0.00
2018-02-15T02:36:25.699Z,0.00
2018-02-15T02:37:25.606Z,0.00
2018-02-15T02:38:25.522Z,0.00
2018-02-15T02:39:25.423Z,0.00
2018-02-15T02:40:25.347Z,0.00
2018-02-15T02:41:25.252Z,0.00
2018-02-15T02:42:25.172Z,0.00
2018-02-15T02:43:25.080Z,0.00
2018-02-15T02:44:25.000Z,0.00
2018-02-15T02:45:24.908Z,0.00
2018-02-15T02:46:24.836Z,0.00
2018-02-15T02:47:24.745Z,0.00
2018-02-15T02:48:24.655Z,0.00
2018-02-15T02:49:24.569Z,0.00
2018-02-15T02:50:24.483Z,0.00
2018-02-15T02:51:24.405Z,0.00
2018-02-15T02:52:24.300Z,0.00
2018-02-15T02:53:24.234Z,0.00
2018-02-15T02:54:24.130Z,0.00
2018-02-15T02:55:24.042Z,0.00
2018-02-15T02:56:23.958Z,0.00
2018-02-15T02:57:23.881Z,0.00
2018-02-15T02:58:23.794Z,0.00
2018-02-15T02:59:23.704Z,0.00
2018-02-15T03:00:23.630Z,0.00
2018-02-15T03:01:23.530Z,0.00
2018-02-15T03:02:23.451Z,0.00
2018-02-15T03:03:23.351Z,0.00
2018-02-15T03:04:23.269Z,0.00
2018-02-15T03:05:23.178Z,0.00
2018-02-15T03:06:23.112Z,0.00
2018-02-15T03:07:23.021Z,0.00
2018-02-15T03:08:22.928Z,0.00
2018-02-15T03:09:22.855Z,0.00
2018-02-15T03:10:22.754Z,0.00
2018-02-15T03:11:22.664Z,0.00
2018-02-15T03:12:22.579Z,0.00
2018-02-15T03:13:22.493Z,0.00
2018-02-15T03:14:22.407Z,0.00
2018-02-15T03:15:22.323Z,0.00
2018-02-15T03:16:22.262Z,0.00
2018-02-15T03:17:22.152Z,0.00
2018-02-15T03:18:22.069Z,0.00
2018-02-15T03:19:21.988Z,0.00
2018-02-15T03:20:21.905Z,0.00
2018-02-15T03:21:21.810Z,0.00
2018-02-15T03:22:21.722Z,0.00
2018-02-15T03:23:21.637Z,0.00
2018-02-15T03:24:21.558Z,0.00
2018-02-15T03:25:21.461Z,0.00
2018-02-15T03:26:21.384Z,0.00
2018-02-15T03:27:21.314Z,0.00
2018-02-15T03:28:21.206Z,0.00
2018-02-15T03:29:21.124Z,0.00
2018-02-15T03:30:21.044Z,0.00
2018-02-15T03:31:20.956Z,0.00
2018-02-15T03:32:20.860Z,0.00
2018-02-15T03:33:20.770Z,0.00
2018-02-15T03:34:20.688Z,0.00
2018-02-15T03:35:20.610Z,0.00
2018-02-15T03:36:20.539Z,0.00
2018-02-15T03:37:20.481Z,0.00
2018-02-15T03:38:20.354Z,0.00
2018-02-15T03:39:20.261Z,0.00
2018-02-15T03:40:20.172Z,0.00
2018-02-15T03:41:20.082Z,0.00
2018-02-15T03:42:20.011Z,0.00
2018-02-15T03:43:19.910Z,0.00
2018-02-15T03:44:19.824Z,0.00
2018-02-15T03:45:19.741Z,0.00
2018-02-15T03:46:19.658Z,0.00
2018-02-15T03:47:19.569Z,0.00
2018-02-15T03:48:19.484Z,0.00
2018-02-15T03:49:19.394Z,0.00
2018-02-15T03:50:19.310Z,0.00
2018-02-15T03:51:19.236Z,0.00
2018-02-15T03:52:19.130Z,0.00
2018-02-15T03:53:19.054Z,0.00
2018-02-15T03:54:18.981Z,0.00
2018-02-15T03:55:18.872Z,0.00
2018-02-15T03:56:18.801Z,0.00
2018-02-15T03:57:18.705Z,0.00
2018-02-15T03:58:18.612Z,0.00
2018-02-15T03:59:18.538Z,0.00
2018-02-15T04:00:18.447Z,0.00
2018-02-15T04:01:18.368Z,0.00
2018-02-15T04:02:18.274Z,0.00
2018-02-15T04:03:18.188Z,0.00
2018-02-15T04:04:18.112Z,0.00
2018-02-15T04:05:18.013Z,0.00
2018-02-15T04:06:17.926Z,0.00
2018-02-15T04:07:17.856Z,0.00
2018-02-15T04:08:17.748Z,0.00
2018-02-15T04:09:17.663Z,0.00
2018-02-15T04:10:17.587Z,0.00
2018-02-15T04:11:17.536Z,0.00
2018-02-15T04:12:17.418Z,0.00
2018-02-15T04:13:17.323Z,0.00
2018-02-15T04:14:17.241Z,0.00
2018-02-15T04:15:17.160Z,0.00
2018-02-15T04:16:17.062Z,0.00
2018-02-15T04:17:16.979Z,0.00
2018-02-15T04:18:16.884Z,0.00
2018-02-15T04:19:16.808Z,0.00
2018-02-15T04:20:16.714Z,0.00
2018-02-15T04:21:16.635Z,0.00
2018-02-15T04:22:16.544Z,0.00
2018-02-15T04:23:16.469Z,0.00
2018-02-15T04:24:16.377Z,0.00
2018-02-15T04:25:16.288Z,0.00
2018-02-15T04:26:16.208Z,0.00
2018-02-15T04:27:16.112Z,0.00
2018-02-15T04:28:16.027Z,0.00
2018-02-15T04:29:15.936Z,0.00
2018-02-15T04:30:15.856Z,0.00
2018-02-15T04:31:15.791Z,0.00
2018-02-15T04:32:15.688Z,0.00
2018-02-15T04:33:15.619Z,0.00
2018-02-15T04:34:15.510Z,0.00
2018-02-15T04:35:15.428Z,0.00
2018-02-15T04:36:15.339Z,0.00
2018-02-15T04:37:15.260Z,0.00
2018-02-15T04:38:15.164Z,0.00
2018-02-15T04:39:15.079Z,0.00
2018-02-15T04:40:14.986Z,0.00
2018-02-15T04:41:14.916Z,0.00
2018-02-15T04:42:14.815Z,0.00
2018-02-15T04:43:14.732Z,0.00
2018-02-15T04:44:14.644Z,0.00
2018-02-15T04:45:14.562Z,0.00
2018-02-15T04:46:14.479Z,0.00
2018-02-15T04:47:14.394Z,0.00
2018-02-15T04:48:14.317Z,0.00
2018-02-15T04:49:14.221Z,0.00
2018-02-15T04:50:14.138Z,0.00
2018-02-15T04:51:14.038Z,0.00
2018-02-15T04:52:13.956Z,0.00
2018-02-15T04:53:13.866Z,0.00
2018-02-15T04:54:13.794Z,0.00
2018-02-15T04:55:13.696Z,0.00
2018-02-15T04:56:13.614Z,0.00
2018-02-15T04:57:13.541Z,0.00
2018-02-15T04:58:13.438Z,0.00
2018-02-15T04:59:13.368Z,0.00
2018-02-15T05:00:13.266Z,0.00
2018-02-15T05:01:13.180Z,0.00
2018-02-15T05:02:13.094Z,0.00
2018-02-15T05:03:13.021Z,0.00
2018-02-15T05:04:12.920Z,0.00
2018-02-15T05:05:12.831Z,0.00
2018-02-15T05:06:12.739Z,0.00
2018-02-15T05:07:12.669Z,0.00
2018-02-15T05:08:12.592Z,0.00
2018-02-15T05:09:12.495Z,0.00
2018-02-15T05:10:12.411Z,0.00
2018-02-15T05:11:12.318Z,0.00
2018-02-15T05:12:12.228Z,0.00
2018-02-15T05:13:12.145Z,0.00
2018-02-15T05:14:12.065Z,0.00
2018-02-15T05:15:11.966Z,0.00
2018-02-15T05:16:11.883Z,0.00
2018-02-15T05:17:11.791Z,0.00
2018-02-15T05:18:11.718Z,0.00
2018-02-15T05:19:11.631Z,0.00
2018-02-15T05:20:11.544Z,0.00
2018-02-15T05:21:11.472Z,0.00
2018-02-15T05:22:11.370Z,0.00
2018-02-15T05:23:11.294Z,0.00
2018-02-15T05:24:11.203Z,0.00
2018-02-15T05:25:11.122Z,0.00
2018-02-15T05:26:11.018Z,0.00
2018-02-15T05:27:10.930Z,0.00
2018-02-15T05:28:10.849Z,0.00
2018-02-15T05:29:10.766Z,0.00
2018-02-15T05:30:10.698Z,0.00
2018-02-15T05:31:10.596Z,0.00
2018-02-15T05:32:10.505Z,0.00
2018-02-15T05:33:10.423Z,0.00
2018-02-15T05:34:10.335Z,0.00
2018-02-15T05:35:10.242Z,0.00
2018-02-15T05:36:10.165Z,0.00
2018-02-15T05:37:10.072Z,0.00
2018-02-15T05:38:09.999Z,0.00
2018-02-15T05:39:09.897Z,0.00
2018-02-15T05:40:09.820Z,0.00
2018-02-15T05:41:09.740Z,0.00
2018-02-15T05:42:09.641Z,0.00
2018-02-15T05:43:09.556Z,0.00
2018-02-15T05:44:09.471Z,0.00
2018-02-15T05:45:09.383Z,0.00
2018-02-15T05:46:09.300Z,0.00
2018-02-15T05:47:09.212Z,0.00
2018-02-15T05:48:09.120Z,0.00
2018-02-15T05:49:09.051Z,0.00
2018-02-15T05:50:08.944Z,0.00
2018-02-15T05:51:08.867Z,0.00
2018-02-15T05:52:08.801Z,0.00
2018-02-15T05:53:08.696Z,0.00
2018-02-15T05:54:08.617Z,4.00
2018-02-15T05:55:08.525Z,0.00
2018-02-15T05:56:08.449Z,0.00
2018-02-15T05:57:08.349Z,4.00
2018-02-15T05:58:08.260Z,0.00
2018-02-15T05:59:08.173Z,4.00
2018-02-15T06:00:08.099Z,4.00
2018-02-15T06:01:08.008Z,4.00
2018-02-15T06:02:07.922Z,8.00
2018-02-15T06:03:07.836Z,4.00
2018-02-15T06:04:07.750Z,8.00
2018-02-15T06:05:07.666Z,8.00
2018-02-15T06:06:07.572Z,8.00
2018-02-15T06:07:07.488Z,12.00
2018-02-15T06:08:07.403Z,16.00
2018-02-15T06:09:07.320Z,16.00
2018-02-15T06:10:07.243Z,16.00
2018-02-15T06:11:07.148Z,20.00
2018-02-15T06:12:07.070Z,24.00
2018-02-15T06:13:06.977Z,28.00
2018-02-15T06:14:06.889Z,32.00
2018-02-15T06:15:06.795Z,40.00
2018-02-15T06:16:06.712Z,44.00
2018-02-15T06:17:06.634Z,52.00
2018-02-15T06:18:06.542Z,52.00
2018-02-15T06:19:06.455Z,60.00
2018-02-15T06:20:06.363Z,64.00
2018-02-15T06:21:06.276Z,68.00
2018-02-15T06:22:06.190Z,76.00
2018-02-15T06:23:06.113Z,84.00
2018-02-15T06:24:06.026Z,92.00
2018-02-15T06:25:05.937Z,96.00
2018-02-15T06:26:05.852Z,100.00
2018-02-15T06:27:05.777Z,112.00
2018-02-15T06:28:05.673Z,136.00
2018-02-15T06:29:05.590Z,144.00
2018-02-15T06:30:05.503Z,176.00
2018-02-15T06:31:05.424Z,180.00
2018-02-15T06:32:05.332Z,180.00
2018-02-15T06:33:05.256Z,192.00
2018-02-15T06:34:05.170Z,192.00
2018-02-15T06:35:05.081Z,208.00
2018-02-15T06:36:04.988Z,252.00
2018-02-15T06:37:04.906Z,312.00
2018-02-15T06:38:04.821Z,316.00
2018-02-15T06:39:04.736Z,316.00
2018-02-15T06:40:04.646Z,324.00
2018-02-15T06:41:04.551Z,336.00
2018-02-15T06:42:04.479Z,340.00
2018-02-15T06:43:04.381Z,372.00
2018-02-15T06:44:04.302Z,396.00
2018-02-15T06:45:04.222Z,432.00
2018-02-15T06:46:04.126Z,424.00
2018-02-15T06:47:04.050Z,424.00
2018-02-15T06:48:03.955Z,428.00
2018-02-15T06:49:03.863Z,424.00
2018-02-15T06:50:03.777Z,392.00
2018-02-15T06:51:03.691Z,452.00
2018-02-15T06:52:03.613Z,392.00
2018-02-15T06:53:03.584Z,420.00
2018-02-15T06:54:03.451Z,492.00
2018-02-15T06:55:03.351Z,460.00
2018-02-15T06:56:03.281Z,532.00
2018-02-15T06:57:03.178Z,488.00
2018-02-15T06:58:03.109Z,564.00
2018-02-15T06:59:03.004Z,512.00
2018-02-15T07:00:02.926Z,540.00
2018-02-15T07:01:02.845Z,520.00
2018-02-15T07:02:02.754Z,544.00
2018-02-15T07:03:02.652Z,584.00
2018-02-15T07:04:02.581Z,588.00
2018-02-15T07:05:02.557Z,648.00
2018-02-15T07:06:02.406Z,668.00
2018-02-15T07:07:02.333Z,728.00
2018-02-15T07:08:02.228Z,716.00
2018-02-15T07:09:02.149Z,780.00
2018-02-15T07:10:02.051Z,852.00
2018-02-15T07:11:01.976Z,824.00
2018-02-15T07:12:01.883Z,836.00
2018-02-15T07:13:01.804Z,832.00
2018-02-15T07:14:01.729Z,836.00
2018-02-15T07:15:01.632Z,876.00
2018-02-15T07:16:01.544Z,904.00
2018-02-15T07:17:01.461Z,916.00
2018-02-15T07:18:01.403Z,872.00
2018-02-15T07:19:01.302Z,1100.00
2018-02-15T07:20:01.199Z,1124.00
2018-02-15T07:21:01.102Z,1108.00
2018-02-15T07:22:01.025Z,1248.00
2018-02-15T07:23:00.933Z,1220.00
2018-02-15T07:24:00.856Z,1328.00
2018-02-15T07:25:00.783Z,1392.00
2018-02-15T07:26:00.680Z,1552.00
2018-02-15T07:27:00.594Z,1688.00
2018-02-15T07:28:00.509Z,1816.00
2018-02-15T07:29:00.438Z,2012.00
2018-02-15T07:30:00.336Z,2460.00
2018-02-15T07:31:00.258Z,2524.00
2018-02-15T07:32:00.166Z,2404.00
2018-02-15T07:33:00.084Z,2256.00
2018-02-15T07:33:59.996Z,2460.00
2018-02-15T07:34:59.908Z,3352.00
2018-02-15T07:35:59.834Z,3704.00
2018-02-15T07:36:59.735Z,3260.00
2018-02-15T07:37:59.644Z,3220.00
2018-02-15T07:38:59.562Z,3608.00
2018-02-15T07:39:59.487Z,3000.00
2018-02-15T07:40:59.406Z,3452.00
2018-02-15T07:41:59.316Z,2788.00
2018-02-15T07:42:59.255Z,2808.00
2018-02-15T07:43:59.130Z,3964.00
2018-02-15T07:44:59.049Z,3424.00
2018-02-15T07:45:58.959Z,3388.00
2018-02-15T07:46:58.882Z,4344.00
2018-02-15T07:47:58.799Z,3924.00
2018-02-15T07:48:58.708Z,4728.00
2018-02-15T07:49:58.636Z,4180.00
2018-02-15T07:50:58.536Z,4036.00
2018-02-15T07:51:58.446Z,5456.00
2018-02-15T07:52:58.376Z,4864.00
2018-02-15T07:53:58.281Z,4332.00
2018-02-15T07:54:58.206Z,4152.00
2018-02-15T07:55:58.115Z,4264.00
2018-02-15T07:56:58.021Z,4628.00
2018-02-15T07:57:57.947Z,4544.00
2018-02-15T07:58:57.862Z,4276.00
2018-02-15T07:59:57.783Z,3916.00
2018-02-15T08:00:57.685Z,2892.00
2018-02-15T08:01:57.595Z,3332.00
2018-02-15T08:02:57.506Z,5140.00
2018-02-15T08:03:57.424Z,4924.00
2018-02-15T08:04:57.334Z,4668.00
2018-02-15T08:05:57.261Z,4920.00
2018-02-15T08:06:57.182Z,4728.00
2018-02-15T08:07:57.082Z,4532.00
2018-02-15T08:08:57.014Z,4184.00
2018-02-15T08:09:56.908Z,4932.00
2018-02-15T08:10:56.834Z,5432.00
2018-02-15T08:11:56.756Z,5400.00
2018-02-15T08:12:56.658Z,5688.00
2018-02-15T08:13:56.575Z,5708.00
2018-02-15T08:14:56.493Z,5496.00
2018-02-15T08:15:56.408Z,5276.00
2018-02-15T08:16:56.327Z,4964.00
2018-02-15T08:17:56.246Z,4944.00
2018-02-15T08:18:56.148Z,5028.00
2018-02-15T08:19:56.068Z,4948.00
2018-02-15T08:20:55.976Z,5004.00
2018-02-15T08:21:55.891Z,4892.00
2018-02-15T08:22:55.819Z,5132.00
2018-02-15T08:23:55.728Z,5036.00
2018-02-15T08:24:55.637Z,5156.00
2018-02-15T08:25:55.562Z,5452.00
2018-02-15T08:26:55.461Z,5068.00
2018-02-15T08:27:55.390Z,4972.00
2018-02-15T08:28:55.312Z,4948.00
2018-02-15T08:29:55.216Z,4684.00
2018-02-15T08:30:55.141Z,4756.00
2018-02-15T08:31:55.042Z,4640.00
2018-02-15T08:32:54.964Z,4388.00
2018-02-15T08:33:54.877Z,4272.00
2018-02-15T08:34:54.785Z,4792.00
2018-02-15T08:35:54.703Z,4684.00
2018-02-15T08:36:54.614Z,4344.00
2018-02-15T08:37:54.542Z,4620.00
2018-02-15T08:38:54.454Z,4576.00
2018-02-15T08:39:54.366Z,4668.00
2018-02-15T08:40:54.284Z,4264.00
2018-02-15T08:41:54.187Z,4280.00
2018-02-15T08:42:54.113Z,3892.00
2018-02-15T08:43:54.032Z,3712.00
2018-02-15T08:44:53.940Z,3928.00
2018-02-15T08:45:53.871Z,3788.00
2018-02-15T08:46:53.767Z,3660.00
2018-02-15T08:47:53.691Z,3560.00
2018-02-15T08:48:53.604Z,3516.00
2018-02-15T08:49:53.520Z,3372.00
2018-02-15T08:50:53.425Z,3308.00
2018-02-15T08:51:53.342Z,3252.00
2018-02-15T08:52:53.268Z,3328.00
2018-02-15T08:53:53.183Z,3216.00
2018-02-15T08:54:53.101Z,3260.00
2018-02-15T08:55:53.004Z,3708.00
2018-02-15T08:56:52.920Z,3624.00
2018-02-15T08:57:52.844Z,3864.00
2018-02-15T08:58:52.754Z,3596.00
2018-02-15T08:59:52.668Z,3976.00
2018-02-15T09:00:52.598Z,5416.00
2018-02-15T09:01:52.493Z,4480.00
2018-02-15T09:02:52.422Z,4076.00
2018-02-15T09:03:52.402Z,4944.00
2018-02-15T09:04:52.247Z,4224.00
2018-02-15T09:05:52.157Z,4316.00
2018-02-15T09:06:52.079Z,4216.00
2018-02-15T09:07:52.000Z,5804.00
2018-02-15T09:08:51.916Z,4984.00
2018-02-15T09:09:51.820Z,5104.00
2018-02-15T09:10:51.734Z,4156.00
2018-02-15T09:11:51.676Z,5136.00
2018-02-15T09:12:51.568Z,4404.00
2018-02-15T09:13:51.501Z,5376.00
2018-02-15T09:14:51.400Z,4656.00
2018-02-15T09:15:51.321Z,5188.00
2018-02-15T09:16:51.217Z,4500.00
2018-02-15T09:17:51.147Z,5812.00
2018-02-15T09:18:51.064Z,4732.00
2018-02-15T09:19:50.967Z,4756.00
2018-02-15T09:20:50.883Z,5020.00
2018-02-15T09:21:50.804Z,4512.00
2018-02-15T09:22:50.715Z,4516.00
2018-02-15T09:23:50.639Z,4820.00
2018-02-15T09:24:50.568Z,4516.00
2018-02-15T09:25:50.477Z,5744.00
2018-02-15T09:26:50.383Z,4576.00
2018-02-15T09:27:50.297Z,5040.00
2018-02-15T09:28:50.227Z,4816.00
2018-02-15T09:29:50.131Z,5700.00
2018-02-15T09:30:50.047Z,7304.00
2018-02-15T09:31:49.980Z,4988.00
2018-02-15T09:32:49.868Z,6352.00
2018-02-15T09:33:49.801Z,4444.00
2018-02-15T09:34:49.754Z,5284.00
2018-02-15T09:35:49.648Z,3952.00
2018-02-15T09:36:49.641Z,4692.00
2018-02-15T09:37:49.457Z,4832.00
2018-02-15T09:38:49.369Z,6240.00
2018-02-15T09:39:49.291Z,5412.00
2018-02-15T09:40:49.215Z,6584.00
2018-02-15T09:41:49.128Z,5600.00
2018-02-15T09:42:49.075Z,3952.00
2018-02-15T09:43:48.950Z,4448.00
2018-02-15T09:44:48.868Z,4264.00
2018-02-15T09:45:48.803Z,4500.00
2018-02-15T09:46:48.730Z,3944.00
2018-02-15T09:47:48.620Z,5096.00
2018-02-15T09:48:48.548Z,4660.00
2018-02-15T09:49:48.445Z,4704.00
2018-02-15T09:50:48.373Z,4292.00
2018-02-15T09:51:48.339Z,4032.00
2018-02-15T09:52:48.193Z,4112.00
2018-02-15T09:53:48.138Z,4132.00
2018-02-15T09:54:48.084Z,3968.00
2018-02-15T09:55:47.943Z,4044.00
2018-02-15T09:56:47.865Z,4104.00
2018-02-15T09:57:47.775Z,4244.00
2018-02-15T09:58:47.694Z,3640.00
2018-02-15T09:59:47.629Z,3676.00
2018-02-15T10:00:47.525Z,3840.00
2018-02-15T10:01:47.441Z,4376.00
2018-02-15T10:02:47.376Z,4088.00
2018-02-15T10:03:47.272Z,3624.00
2018-02-15T10:04:47.191Z,4508.00
2018-02-15T10:05:47.103Z,4580.00
2018-02-15T10:06:47.021Z,4356.00
2018-02-15T10:07:46.939Z,5276.00
2018-02-15T10:08:46.848Z,4376.00
2018-02-15T10:09:46.776Z,4312.00
2018-02-15T10:10:46.693Z,4452.00
2018-02-15T10:11:46.598Z,4152.00
2018-02-15T10:12:46.526Z,4300.00
2018-02-15T10:13:46.437Z,4344.00
2018-02-15T10:14:46.354Z,4296.00
2018-02-15T10:15:46.265Z,4208.00
2018-02-15T10:16:46.173Z,4252.00
2018-02-15T10:17:46.102Z,4520.00
2018-02-15T10:18:46.031Z,4788.00
2018-02-15T10:19:45.929Z,4808.00
2018-02-15T10:20:45.859Z,4796.00
2018-02-15T10:21:45.776Z,4764.00
2018-02-15T10:22:45.675Z,4716.00
2018-02-15T10:23:45.603Z,4888.00
2018-02-15T10:24:45.528Z,5028.00
2018-02-15T10:25:45.429Z,4708.00
2018-02-15T10:26:45.345Z,4612.00
2018-02-15T10:27:45.262Z,4504.00
2018-02-15T10:28:45.176Z,4552.00
2018-02-15T10:29:45.089Z,4396.00
2018-02-15T10:30:45.062Z,4144.00
2018-02-15T10:31:44.930Z,3788.00
2018-02-15T10:32:44.860Z,4796.00
2018-02-15T10:33:44.756Z,4672.00
2018-02-15T10:34:44.678Z,4944.00
2018-02-15T10:35:44.604Z,4940.00
2018-02-15T10:36:44.521Z,4984.00
2018-02-15T10:37:44.426Z,4984.00
2018-02-15T10:38:44.353Z,5112.00
2018-02-15T10:39:44.256Z,5116.00
2018-02-15T10:40:44.176Z,5264.00
2018-02-15T10:41:44.096Z,5120.00
2018-02-15T10:42:44.019Z,5076.00
2018-02-15T10:43:43.926Z,4956.00
2018-02-15T10:44:43.863Z,5028.00
2018-02-15T10:45:43.752Z,4580.00
2018-02-15T10:46:43.674Z,5396.00
2018-02-15T10:47:43.596Z,5348.00
2018-02-15T10:48:43.503Z,5932.00
2018-02-15T10:49:43.440Z,6364.00
2018-02-15T10:50:43.355Z,6712.00
2018-02-15T10:51:43.281Z,7104.00
2018-02-15T10:52:43.179Z,6440.00
2018-02-15T10:53:43.100Z,6376.00
2018-02-15T10:54:43.005Z,7640.00
2018-02-15T10:55:42.933Z,8180.00
2018-02-15T10:56:42.854Z,7860.00
2018-02-15T10:57:42.760Z,7880.00
2018-02-15T10:58:42.681Z,7692.00
2018-02-15T10:59:42.590Z,7396.00
2018-02-15T11:00:42.520Z,7556.00
2018-02-15T11:01:42.427Z,7684.00
2018-02-15T11:02:42.350Z,7732.00
2018-02-15T11:03:42.282Z,7880.00
2018-02-15T11:04:42.188Z,7552.00
2018-02-15T11:05:42.109Z,6912.00
2018-02-15T11:06:42.019Z,6628.00
2018-02-15T11:07:41.938Z,6656.00
2018-02-15T11:08:41.857Z,6784.00
2018-02-15T11:09:41.779Z,6448.00
2018-02-15T11:10:41.692Z,6932.00
2018-02-15T11:11:41.622Z,7004.00
2018-02-15T11:12:41.527Z,6768.00
2018-02-15T11:13:41.448Z,6924.00
2018-02-15T11:14:41.370Z,6900.00
2018-02-15T11:15:41.283Z,6972.00
2018-02-15T11:16:41.205Z,7412.00
2018-02-15T11:17:41.133Z,7060.00
2018-02-15T11:18:41.045Z,6864.00
2018-02-15T11:19:40.961Z,6668.00
2018-02-15T11:20:40.880Z,6344.00
2018-02-15T11:21:40.798Z,6092.00
2018-02-15T11:22:40.722Z,5896.00
2018-02-15T11:23:40.631Z,5972.00
2018-02-15T11:24:40.558Z,6132.00
2018-02-15T11:25:40.485Z,6144.00
2018-02-15T11:26:40.384Z,6196.00
2018-02-15T11:27:40.309Z,6336.00
2018-02-15T11:28:40.230Z,6656.00
2018-02-15T11:29:40.150Z,7048.00
2018-02-15T11:30:40.064Z,7132.00
2018-02-15T11:31:39.981Z,7320.00
2018-02-15T11:32:39.910Z,7568.00
2018-02-15T11:33:39.820Z,8020.00
2018-02-15T11:34:39.734Z,8656.00
2018-02-15T11:35:39.661Z,9112.00
2018-02-15T11:36:39.567Z,9212.00
2018-02-15T11:37:39.489Z,9388.00
2018-02-15T11:38:39.413Z,8968.00
2018-02-15T11:39:39.318Z,8704.00
2018-02-15T11:40:39.250Z,8404.00
2018-02-15T11:41:39.156Z,8328.00
2018-02-15T11:42:39.085Z,8608.00
2018-02-15T11:43:39.001Z,8000.00
2018-02-15T11:44:38.906Z,7512.00
2018-02-15T11:45:38.835Z,7288.00
2018-02-15T11:46:38.747Z,7516.00
2018-02-15T11:47:38.669Z,7468.00
2018-02-15T11:48:38.582Z,7100.00
2018-02-15T11:49:38.536Z,7024.00
2018-02-15T11:50:38.428Z,7156.00
2018-02-15T11:51:38.360Z,7000.00
2018-02-15T11:52:38.267Z,7848.00
2018-02-15T11:53:38.181Z,8152.00
2018-02-15T11:54:38.095Z,7816.00
2018-02-15T11:55:38.246Z,7800.00
2018-02-15T11:56:37.968Z,7628.00
2018-02-15T11:57:37.863Z,7352.00
2018-02-15T11:58:37.779Z,8052.00
2018-02-15T11:59:37.687Z,8536.00
2018-02-15T12:00:37.657Z,7972.00
2018-02-15T12:01:37.520Z,8092.00
2018-02-15T12:02:37.445Z,8856.00
2018-02-15T12:03:37.367Z,8628.00
2018-02-15T12:04:37.286Z,8876.00
2018-02-15T12:05:37.213Z,9392.00
2018-02-15T12:06:37.124Z,9140.00
2018-02-15T12:07:37.035Z,9272.00
2018-02-15T12:08:36.963Z,9900.00
2018-02-15T12:09:36.884Z,9588.00
2018-02-15T12:10:36.810Z,9648.00
2018-02-15T12:11:36.730Z,9868.00
2018-02-15T12:12:36.640Z,8916.00
2018-02-15T12:13:36.562Z,8252.00
2018-02-15T12:14:36.476Z,8068.00
2018-02-15T12:15:36.397Z,8048.00
2018-02-15T12:16:36.315Z,8012.00
2018-02-15T12:17:36.235Z,8572.00
2018-02-15T12:18:36.149Z,9196.00
2018-02-15T12:19:36.089Z,9036.00
2018-02-15T12:20:35.986Z,9320.00
2018-02-15T12:21:35.924Z,8956.00
2018-02-15T12:22:35.839Z,8564.00
2018-02-15T12:23:35.753Z,8096.00
2018-02-15T12:24:35.667Z,7908.00
2018-02-15T12:25:35.585Z,7444.00
2018-02-15T12:26:35.503Z,7592.00
2018-02-15T12:27:35.438Z,7676.00
2018-02-15T12:28:35.344Z,7624.00
2018-02-15T12:29:35.271Z,7324.00
2018-02-15T12:30:35.179Z,7224.00
2018-02-15T12:31:35.104Z,6984.00
2018-02-15T12:32:35.014Z,6996.00
2018-02-15T12:33:34.937Z,6796.00
2018-02-15T12:34:34.849Z,6972.00
2018-02-15T12:35:34.778Z,7524.00
2018-02-15T12:36:34.685Z,7048.00
2018-02-15T12:37:34.614Z,7140.00
2018-02-15T12:38:34.548Z,7240.00
2018-02-15T12:39:34.450Z,7100.00
2018-02-15T12:40:34.368Z,7208.00